Terminal Aerodrome Forecast
Issued by NWS Charleston, WV

Current Version | Previous Version | Graphics & Text | Print | Product List | Glossary On
Versions: 1 2 3 4 5 6 7 8 9 10 11 12 13 14 15 16 17 18 19 20 21 22 23 24 25
000
FTUS41 KRLX 302100 AAA
TAFPKB
TAF AMD
KPKB 302103Z 3021/0118 00000KT P6SM OVC050
      TEMPO 3021/3022 5SM -SHRA
     FM302300 01004KT P6SM BKN050
     FM010300 00000KT P6SM BKN010
     FM011100 00000KT P6SM SCT010=

USA.gov is the U.S. government's official web portal to all federal, state and local government web resources and services.